Time;durP1;ratioP1;P1;durP2;ratioP2;P2;SDS_P1;SDS_P2;PMS_P1;PMS_P2;Temp;Humidity;BMP_temperature;BMP_pressure;BME280_temperature;BME280_humidity;BME280_pressure;Samples;Min_cycle;Max_cycle;Signal;HPM_P1;HPM_P2
2021/03/10 00:02:29;;;;;;;50.35;20.05;;;;;;;2.83;81.84;100644.16;8458646;33;20417;-72
2021/03/10 00:07:39;;;;;;;54.42;22.42;;;;;;;2.82;81.78;100647.72;8473387;33;20217;-72
2021/03/10 00:12:42;;;;;;;53.20;23.42;;;;;;;2.75;81.48;100641.00;8476489;33;20149;-72
2021/03/10 00:17:44;;;;;;;45.30;20.63;;;;;;;2.69;81.40;100643.91;8476560;33;20709;-72
2021/03/10 00:22:48;;;;;;;41.75;19.35;;;;;;;2.59;81.59;100654.06;8481756;33;20457;-72
2021/03/10 00:27:50;;;;;;;48.72;21.00;;;;;;;2.51;81.83;100664.09;8496398;33;21025;-72
2021/03/10 00:32:52;;;;;;;48.45;21.08;;;;;;;2.62;81.47;100658.38;8481796;33;20392;-72
2021/03/10 00:38:04;;;;;;;49.28;21.50;;;;;;;2.67;81.74;100655.53;8481441;33;20161;-72
2021/03/10 00:43:06;;;;;;;51.38;21.73;;;;;;;2.66;81.52;100661.75;8485784;33;20192;-73
2021/03/10 00:48:09;;;;;;;53.07;21.27;;;;;;;2.62;81.39;100650.41;8464128;33;20299;-73
2021/03/10 00:53:12;;;;;;;55.27;20.90;;;;;;;2.65;81.44;100652.06;8481253;33;20169;-73
2021/03/10 00:58:14;;;;;;;55.43;21.03;;;;;;;2.55;81.43;100652.47;8481645;33;20187;-73
2021/03/10 01:03:17;;;;;;;72.83;28.60;;;;;;;2.64;81.83;100653.00;8481235;33;20188;-72
2021/03/10 01:08:23;;;;;;;66.10;29.77;;;;;;;2.70;81.84;100645.63;8457215;33;20149;-73
2021/03/10 01:13:25;;;;;;;55.73;23.03;;;;;;;2.70;81.67;100639.47;8482362;33;20188;-73
2021/03/10 01:18:28;;;;;;;51.70;23.15;;;;;;;2.60;81.52;100637.19;8484981;33;20998;-73
2021/03/10 01:23:31;;;;;;;55.70;23.85;;;;;;;2.56;81.44;100648.03;8483742;33;20141;-73
2021/03/10 01:28:34;;;;;;;55.92;21.88;;;;;;;2.56;81.46;100637.44;8480954;33;20528;-72
2021/03/10 01:33:36;;;;;;;55.30;24.75;;;;;;;2.39;81.18;100641.63;8481376;33;22363;-73
2021/03/10 01:38:47;;;;;;;54.70;23.13;;;;;;;2.42;81.25;100653.03;8482101;33;20464;-73
2021/03/10 01:43:49;;;;;;;58.00;24.17;;;;;;;2.45;81.71;100648.47;8485107;33;20445;-73
2021/03/10 01:48:51;;;;;;;67.40;27.27;;;;;;;2.51;81.10;100644.69;8491120;33;20520;-72
2021/03/10 01:53:54;;;;;;;42.53;18.77;;;;;;;2.44;80.74;100652.06;8490213;33;21554;-73
2021/03/10 01:58:57;;;;;;;53.60;23.60;;;;;;;2.22;79.30;100643.25;8486683;33;20243;-72
2021/03/10 02:04:03;;;;;;;53.50;23.70;;;;;;;2.31;79.80;100651.72;8484768;33;20461;-73
2021/03/10 02:09:16;;;;;;;38.30;16.97;;;;;;;1.88;78.81;100672.03;8483434;33;20164;-72
2021/03/10 02:14:30;;;;;;;59.70;23.00;;;;;;;2.05;79.21;100683.72;8481813;33;20228;-72
2021/03/10 02:20:20;;;;;;;53.27;22.47;;;;;;;2.01;79.42;100653.00;8483436;33;20471;-72
2021/03/10 02:25:38;;;;;;;57.20;22.57;;;;;;;2.21;78.82;100645.06;8489414;33;20291;-72
2021/03/10 02:30:44;;;;;;;57.73;23.10;;;;;;;2.30;79.28;100649.97;8490053;33;21120;-72
2021/03/10 02:35:53;;;;;;;64.10;24.53;;;;;;;2.19;78.71;100649.56;8466622;33;20141;-73
2021/03/10 02:40:56;;;;;;;59.70;23.53;;;;;;;2.15;78.92;100647.97;8498704;33;20485;-73
2021/03/10 02:46:03;;;;;;;50.80;21.63;;;;;;;2.16;78.59;100650.53;8489441;33;20151;-73
2021/03/10 02:51:07;;;;;;;54.80;22.23;;;;;;;2.20;79.13;100651.31;8489563;33;21822;-72
2021/03/10 02:56:11;;;;;;;51.92;22.58;;;;;;;2.31;79.41;100642.91;8497075;33;20436;-73
2021/03/10 03:01:15;;;;;;;54.40;22.43;;;;;;;2.31;79.21;100643.75;8514006;33;20430;-73
2021/03/10 03:06:17;;;;;;;49.80;22.27;;;;;;;2.30;79.70;100638.50;8512211;33;20196;-73
2021/03/10 03:11:20;;;;;;;54.40;22.92;;;;;;;2.25;79.07;100641.38;8496851;33;20251;-72
2021/03/10 03:16:25;;;;;;;50.37;22.03;;;;;;;2.25;79.75;100643.13;8490301;33;20895;-72
2021/03/10 03:21:28;;;;;;;45.70;21.48;;;;;;;2.32;79.69;100645.47;8501403;33;20475;-72
2021/03/10 03:26:32;;;;;;;51.43;21.63;;;;;;;2.19;79.35;100638.97;8502942;33;20230;-72
2021/03/10 03:31:35;;;;;;;52.97;24.87;;;;;;;2.21;79.49;100647.72;8501362;33;20517;-72
2021/03/10 03:36:38;;;;;;;49.58;20.98;;;;;;;2.19;79.42;100649.56;8503556;33;21139;-72
2021/03/10 03:41:40;;;;;;;48.47;19.93;;;;;;;2.26;79.74;100644.88;8502378;33;20239;-72
2021/03/10 03:46:44;;;;;;;50.07;22.20;;;;;;;2.24;79.49;100654.69;8500734;33;20541;-72
2021/03/10 03:51:46;;;;;;;50.03;21.43;;;;;;;2.18;79.19;100650.50;8502248;33;20137;-73
2021/03/10 03:56:48;;;;;;;50.57;20.93;;;;;;;2.30;79.22;100649.97;8500847;33;20688;-73
2021/03/10 04:01:51;;;;;;;45.22;21.25;;;;;;;2.16;79.71;100647.03;8501022;33;20484;-73
2021/03/10 04:06:54;;;;;;;45.80;20.77;;;;;;;2.11;80.25;100634.00;8558459;33;20522;-72
2021/03/10 04:11:56;;;;;;;52.60;22.17;;;;;;;2.11;80.04;100639.31;8558661;33;20418;-73
2021/03/10 04:16:59;;;;;;;47.07;20.93;;;;;;;2.20;79.51;100627.44;8561012;33;20571;-73
2021/03/10 04:22:02;;;;;;;50.30;20.57;;;;;;;2.10;80.06;100642.84;8564665;33;20239;-72
2021/03/10 04:27:05;;;;;;;42.72;18.17;;;;;;;2.13;79.47;100642.72;8563516;33;20599;-72
2021/03/10 04:32:09;;;;;;;43.87;19.00;;;;;;;2.18;79.47;100642.53;8560921;33;20661;-72
2021/03/10 04:37:12;;;;;;;39.70;16.97;;;;;;;2.16;79.11;100647.91;8558854;33;20455;-72
2021/03/10 04:42:14;;;;;;;43.00;19.17;;;;;;;2.11;78.83;100652.56;8559884;33;20933;-72
2021/03/10 04:47:17;;;;;;;39.47;16.27;;;;;;;2.03;78.95;100659.06;8558486;33;20175;-72
2021/03/10 04:52:20;;;;;;;36.47;16.03;;;;;;;1.98;78.62;100659.28;8575163;33;20481;-72
2021/03/10 04:57:22;;;;;;;33.58;15.38;;;;;;;2.01;79.22;100648.56;8576701;33;20434;-72
2021/03/10 05:02:25;;;;;;;34.17;15.20;;;;;;;1.97;78.83;100660.19;8582553;33;20375;-72
2021/03/10 05:07:28;;;;;;;35.25;15.77;;;;;;;1.89;77.56;100662.28;8570868;33;21985;-73
2021/03/10 05:12:30;;;;;;;37.60;17.30;;;;;;;1.75;76.70;100668.13;8565842;33;20422;-73
2021/03/10 05:17:34;;;;;;;42.57;17.77;;;;;;;1.81;76.64;100673.22;8564957;33;20248;-72
2021/03/10 05:22:36;;;;;;;45.58;17.48;;;;;;;1.78;75.76;100677.75;8568852;33;20137;-72
2021/03/10 05:27:39;;;;;;;32.33;16.80;;;;;;;1.81;76.07;100681.16;8567274;33;21483;-73
2021/03/10 05:32:42;;;;;;;40.03;18.17;;;;;;;1.76;76.96;100687.56;8563206;33;20447;-73
2021/03/10 05:37:44;;;;;;;38.30;17.93;;;;;;;1.84;76.96;100690.78;8565342;33;20402;-73
2021/03/10 05:42:47;;;;;;;42.00;17.87;;;;;;;1.83;77.32;100684.59;8564269;33;20182;-73
2021/03/10 05:47:51;;;;;;;46.23;20.77;;;;;;;1.96;77.48;100687.63;8564209;33;20450;-72
2021/03/10 05:52:55;;;;;;;48.13;18.70;;;;;;;2.01;77.47;100672.41;8563629;33;20443;-72
2021/03/10 05:57:57;;;;;;;49.07;20.60;;;;;;;2.02;77.73;100679.41;8565746;33;21458;-73
2021/03/10 06:03:01;;;;;;;48.53;21.13;;;;;;;1.94;78.01;100682.38;8554334;33;20465;-73
2021/03/10 06:08:06;;;;;;;49.20;20.57;;;;;;;1.92;77.94;100681.59;8547728;33;20257;-73
2021/03/10 06:13:22;;;;;;;57.60;22.63;;;;;;;1.99;78.74;100668.09;8538326;33;20681;-71
2021/03/10 06:18:30;;;;;;;55.03;21.93;;;;;;;2.31;78.53;100667.63;8547937;33;20274;-71
2021/03/10 06:23:34;;;;;;;55.83;22.70;;;;;;;2.34;78.06;100675.44;8546749;33;20422;-72
2021/03/10 06:28:38;;;;;;;48.13;21.70;;;;;;;2.38;79.03;100674.34;8546958;33;20603;-72
2021/03/10 06:33:41;;;;;;;52.07;22.77;;;;;;;2.52;78.64;100665.81;8557659;33;20450;-72
2021/03/10 06:38:50;;;;;;;54.75;23.38;;;;;;;2.51;77.98;100669.41;8560215;33;20148;-72
2021/03/10 06:43:52;;;;;;;51.42;23.20;;;;;;;2.54;78.42;100665.78;8559186;33;20199;-73
2021/03/10 06:48:59;;;;;;;47.80;22.37;;;;;;;2.68;78.74;100668.69;8537645;33;21670;-72
2021/03/10 06:54:02;;;;;;;52.08;22.88;;;;;;;2.84;78.79;100682.16;8565330;33;20234;-72
2021/03/10 06:59:06;;;;;;;57.00;23.40;;;;;;;2.96;78.33;100683.41;8564195;33;20215;-73
2021/03/10 07:04:12;;;;;;;54.60;23.30;;;;;;;3.05;78.58;100689.19;8566845;33;20432;-73
2021/03/10 07:09:14;;;;;;;61.08;23.95;;;;;;;3.12;78.62;100689.75;8576684;33;20415;-72
2021/03/10 07:14:16;;;;;;;61.30;24.88;;;;;;;3.24;78.35;100704.28;8542077;33;20213;-72
2021/03/10 07:19:20;;;;;;;63.22;27.13;;;;;;;3.43;78.28;100699.00;8541989;33;20424;-72
2021/03/10 07:38:11;;;;;;;62.45;26.48;;;;;;;3.78;77.67;100705.28;8537802;33;20411;-71
2021/03/10 07:43:18;;;;;;;71.88;28.23;;;;;;;3.86;77.40;100705.78;8543908;33;20486;-72
2021/03/10 07:48:30;;;;;;;57.47;24.17;;;;;;;3.83;77.43;100710.38;8538867;33;20421;-72
2021/03/10 07:53:38;;;;;;;60.08;25.80;;;;;;;3.70;77.36;100704.78;8515667;33;20436;-71
2021/03/10 07:58:44;;;;;;;59.00;25.55;;;;;;;4.01;76.67;100706.84;8536172;33;20408;-71
2021/03/10 08:03:46;;;;;;;61.80;25.58;;;;;;;3.92;75.63;100713.47;8538890;33;20471;-71
2021/03/10 08:08:50;;;;;;;54.83;24.63;;;;;;;3.70;74.73;100716.31;8538725;33;20850;-71
2021/03/10 08:13:59;;;;;;;51.53;22.80;;;;;;;4.01;76.26;100709.50;8543450;33;20418;-71
2021/03/10 08:19:02;;;;;;;42.28;18.55;;;;;;;4.12;74.91;100709.84;8538659;33;20885;-71
2021/03/10 08:24:06;;;;;;;58.78;23.45;;;;;;;4.16;74.12;100715.88;8534720;33;21938;-71
2021/03/10 08:29:09;;;;;;;58.78;23.83;;;;;;;3.87;74.28;100726.13;8537251;33;20295;-71
2021/03/10 08:34:11;;;;;;;54.28;23.17;;;;;;;3.70;74.89;100721.63;8536519;33;20969;-72
2021/03/10 08:39:15;;;;;;;57.72;23.67;;;;;;;4.03;74.99;100723.59;8539075;33;21532;-72
2021/03/10 08:44:20;;;;;;;60.10;24.35;;;;;;;4.32;74.14;100718.63;8540218;33;20492;-71
2021/03/10 08:49:26;;;;;;;58.57;22.93;;;;;;;4.36;73.63;100709.56;8541394;33;20413;-72
2021/03/10 08:54:30;;;;;;;54.17;21.65;;;;;;;4.59;73.87;100700.44;8535056;33;20416;-71
2021/03/10 08:59:36;;;;;;;64.90;26.35;;;;;;;4.73;73.84;100707.69;8534761;33;20864;-71
2021/03/10 09:04:46;;;;;;;56.13;23.60;;;;;;;4.75;72.55;100712.00;8534781;33;20154;-71
2021/03/10 09:09:55;;;;;;;53.97;24.20;;;;;;;4.44;72.75;100707.38;8510850;33;20434;-71
2021/03/10 09:14:58;;;;;;;63.90;23.80;;;;;;;4.38;72.54;100708.53;8533664;33;22120;-73
2021/03/10 09:20:10;;;;;;;61.08;25.40;;;;;;;4.27;72.32;100710.03;8511004;33;21057;-71
2021/03/10 09:25:17;;;;;;;51.65;22.80;;;;;;;4.47;71.40;100693.94;8509011;33;20196;-72
2021/03/10 09:30:31;;;;;;;60.47;25.27;;;;;;;4.60;70.92;100678.19;8508618;33;20443;-72
2021/03/10 09:35:37;;;;;;;59.50;23.33;;;;;;;4.98;69.90;100678.00;8531838;33;20415;-72
2021/03/10 09:40:45;;;;;;;70.00;27.55;;;;;;;4.92;67.96;100684.50;8530270;33;21096;-72
2021/03/10 09:45:50;;;;;;;75.75;28.60;;;;;;;4.67;69.24;100674.28;8563362;33;20505;-72
2021/03/10 09:51:05;;;;;;;72.93;27.92;;;;;;;4.97;67.51;100665.63;8503011;33;20555;-73
2021/03/10 09:56:14;;;;;;;84.60;31.10;;;;;;;5.37;66.58;100655.50;8474404;33;20545;-73
2021/03/10 10:01:22;;;;;;;87.38;31.08;;;;;;;5.58;66.21;100651.66;8478467;33;20177;-73
2021/03/10 10:06:25;;;;;;;81.50;29.25;;;;;;;5.40;66.77;100631.34;8479915;33;20455;-73
2021/03/10 10:11:31;;;;;;;62.25;25.27;;;;;;;5.38;66.80;100635.94;8451219;33;20439;-73
2021/03/10 10:16:37;;;;;;;76.47;28.80;;;;;;;5.48;65.83;100637.13;8488122;33;649320;-73
2021/03/10 10:21:48;;;;;;;75.15;31.45;;;;;;;5.86;65.18;100639.44;8505916;33;20450;-73
2021/03/10 10:26:52;;;;;;;74.63;31.05;;;;;;;6.04;64.66;100625.03;8504364;33;22300;-73
2021/03/10 10:31:59;;;;;;;57.13;24.42;;;;;;;6.04;64.71;100626.84;8507563;33;20159;-73
2021/03/10 10:37:06;;;;;;;56.40;25.80;;;;;;;6.39;64.13;100622.13;8505659;33;20482;-73
2021/03/10 10:42:19;;;;;;;45.92;17.20;;;;;;;6.70;62.42;100629.13;8474086;33;20549;-73
2021/03/10 10:47:26;;;;;;;53.65;23.08;;;;;;;6.76;61.95;100635.88;8475758;33;20216;-73
2021/03/10 10:52:44;;;;;;;53.42;20.25;;;;;;;6.72;61.55;100631.66;8467279;33;21176;-73
2021/03/10 10:57:47;;;;;;;40.83;17.17;;;;;;;7.45;60.02;100618.22;8482521;33;20772;-71
2021/03/10 11:02:52;;;;;;;31.48;13.65;;;;;;;7.31;58.38;100616.44;8471093;33;20238;-72
2021/03/10 11:08:04;;;;;;;38.55;16.70;;;;;;;7.15;59.30;100602.34;8494135;33;21019;-73
2021/03/10 11:13:07;;;;;;;26.10;13.63;;;;;;;7.02;59.88;100597.78;8439855;33;20578;-72
2021/03/10 11:18:21;;;;;;;38.15;16.73;;;;;;;7.57;58.60;100601.41;8461627;33;21378;-72
2021/03/10 11:23:24;;;;;;;31.20;15.95;;;;;;;7.87;58.56;100578.94;8490750;33;20474;-71
2021/03/10 11:28:27;;;;;;;33.53;14.35;;;;;;;7.76;58.49;100573.44;8479816;33;20161;-72
2021/03/10 11:33:32;;;;;;;36.20;16.13;;;;;;;8.14;58.17;100581.59;8479148;33;20419;-72
2021/03/10 11:38:35;;;;;;;33.05;14.65;;;;;;;8.26;57.72;100566.53;8500860;33;20222;-72
2021/03/10 11:43:38;;;;;;;37.38;16.13;;;;;;;8.00;57.95;100574.50;8536011;33;20480;-72
2021/03/10 11:48:45;;;;;;;33.92;15.52;;;;;;;7.30;59.72;100579.16;8558456;33;20472;-73
2021/03/10 11:53:47;;;;;;;33.92;15.15;;;;;;;7.39;59.08;100576.72;8520177;33;20489;-72
2021/03/10 11:58:50;;;;;;;30.63;12.57;;;;;;;7.86;58.62;100569.22;8472954;33;20229;-73
2021/03/10 12:04:02;;;;;;;31.50;11.63;;;;;;;7.92;58.77;100560.78;8520077;33;20418;-73
2021/03/10 12:09:18;;;;;;;37.33;15.18;;;;;;;7.92;58.61;100561.63;8514051;33;20185;-73
2021/03/10 12:14:23;;;;;;;32.50;14.57;;;;;;;7.83;58.22;100566.75;8496658;33;20309;-73
2021/03/10 12:19:25;;;;;;;26.77;13.48;;;;;;;8.21;57.29;100550.78;8490472;33;20149;-72
2021/03/10 12:24:28;;;;;;;28.02;13.10;;;;;;;8.13;58.37;100547.78;8489500;33;20455;-72
2021/03/10 12:29:31;;;;;;;26.33;12.52;;;;;;;8.16;56.91;100542.22;8489320;33;21918;-72
2021/03/10 12:34:33;;;;;;;22.52;10.95;;;;;;;7.85;56.48;100522.91;8504941;33;20752;-72
2021/03/10 12:39:36;;;;;;;25.48;11.95;;;;;;;8.10;56.38;100519.41;8501695;33;20440;-73
2021/03/10 12:44:41;;;;;;;25.65;10.38;;;;;;;8.08;56.33;100505.25;8502707;33;20459;-72
2021/03/10 12:49:43;;;;;;;25.75;11.90;;;;;;;8.72;56.15;100491.03;8501200;33;20153;-72
2021/03/10 12:54:46;;;;;;;23.65;8.77;;;;;;;9.04;54.60;100489.56;8503152;33;20407;-72
2021/03/10 12:59:49;;;;;;;24.15;12.55;;;;;;;8.77;55.01;100475.50;8481378;33;20440;-73
2021/03/10 13:04:51;;;;;;;20.67;10.27;;;;;;;8.60;56.66;100464.16;8506029;33;20207;-72
2021/03/10 13:09:54;;;;;;;27.67;13.90;;;;;;;8.33;57.21;100461.59;8508096;33;20188;-72
2021/03/10 13:14:57;;;;;;;30.67;13.45;;;;;;;7.87;58.03;100463.94;8511388;33;20458;-72
2021/03/10 13:19:59;;;;;;;25.98;12.00;;;;;;;7.60;59.03;100464.88;8514619;33;20464;-73
2021/03/10 13:25:01;;;;;;;30.23;13.15;;;;;;;8.13;58.01;100444.28;8521594;33;20421;-72
2021/03/10 13:30:07;;;;;;;31.55;13.93;;;;;;;8.53;57.78;100444.19;8525355;33;20448;-73
2021/03/10 13:35:10;;;;;;;31.63;15.32;;;;;;;7.93;58.24;100444.81;8492734;33;20425;-72
2021/03/10 13:40:14;;;;;;;24.85;10.70;;;;;;;7.56;59.23;100439.28;8518234;33;20202;-72
2021/03/10 13:45:17;;;;;;;27.33;12.68;;;;;;;7.68;59.50;100430.44;8516864;33;20457;-72
2021/03/10 13:50:20;;;;;;;31.50;13.80;;;;;;;7.61;59.47;100422.94;8494185;33;20783;-72
2021/03/10 13:55:22;;;;;;;28.88;13.93;;;;;;;7.76;60.29;100423.69;8517792;33;20171;-72
2021/03/10 14:00:27;;;;;;;34.80;15.57;;;;;;;7.82;59.74;100417.97;8518129;33;20152;-72
2021/03/10 14:05:29;;;;;;;27.98;13.23;;;;;;;7.71;60.41;100399.97;8520037;33;20439;-72
2021/03/10 14:10:31;;;;;;;27.63;15.75;;;;;;;7.80;60.21;100409.16;8516598;33;20683;-72
2021/03/10 14:15:36;;;;;;;33.55;15.05;;;;;;;7.88;59.85;100390.78;8514927;33;20192;-73
2021/03/10 14:20:38;;;;;;;28.45;13.75;;;;;;;7.76;59.61;100395.13;8499731;33;20660;-73
2021/03/10 14:25:45;;;;;;;39.10;17.50;;;;;;;7.74;59.74;100386.38;8512116;33;20440;-73
2021/03/10 14:30:48;;;;;;;37.75;17.27;;;;;;;7.77;59.66;100382.66;8507589;33;20184;-72
2021/03/10 14:35:50;;;;;;;38.30;16.30;;;;;;;7.84;59.75;100374.06;8505260;33;20234;-73
2021/03/10 14:40:53;;;;;;;39.67;18.48;;;;;;;7.94;59.53;100374.28;8506210;33;21378;-72
2021/03/10 14:45:56;;;;;;;37.80;17.70;;;;;;;7.79;59.80;100376.22;8510228;33;20424;-73
2021/03/10 14:50:58;;;;;;;48.88;24.75;;;;;;;7.54;61.05;100368.16;8484602;33;20454;-73
2021/03/10 14:56:00;;;;;;;36.17;18.30;;;;;;;7.95;59.96;100367.97;8510561;33;20140;-73
2021/03/10 15:01:04;;;;;;;37.67;16.75;;;;;;;7.83;60.24;100361.66;8509507;33;20417;-72
2021/03/10 15:06:07;;;;;;;28.10;11.93;;;;;;;7.72;60.59;100361.56;8508570;33;20470;-72
2021/03/10 15:11:11;;;;;;;49.05;22.50;;;;;;;7.77;61.18;100354.09;8507681;33;20507;-72
2021/03/10 15:16:14;;;;;;;56.10;24.10;;;;;;;7.78;60.59;100344.25;8500898;33;21493;-72
2021/03/10 15:21:18;;;;;;;35.00;15.68;;;;;;;7.66;60.80;100329.91;8500711;33;20196;-73
2021/03/10 15:26:21;;;;;;;51.40;18.30;;;;;;;7.67;61.05;100316.41;8500251;33;20184;-73
2021/03/10 15:31:24;;;;;;;43.40;19.17;;;;;;;7.90;60.94;100308.63;8501279;33;20505;-73
2021/03/10 15:36:26;;;;;;;36.60;18.15;;;;;;;8.03;60.52;100290.72;8501403;33;20552;-73
2021/03/10 15:41:28;;;;;;;38.42;18.50;;;;;;;7.97;60.38;100293.81;8503486;33;20192;-73
2021/03/10 15:46:31;;;;;;;43.25;16.73;;;;;;;7.94;60.59;100289.53;8506531;33;20199;-73
2021/03/10 15:51:35;;;;;;;39.67;18.48;;;;;;;7.81;61.07;100287.84;8507308;33;20420;-72
2021/03/10 15:56:39;;;;;;;39.92;18.52;;;;;;;7.76;61.27;100280.16;8509240;33;20195;-73
2021/03/10 16:01:43;;;;;;;43.58;19.77;;;;;;;7.66;61.14;100271.94;8518012;33;20448;-73
2021/03/10 16:06:45;;;;;;;42.60;19.02;;;;;;;7.63;61.76;100256.13;8526923;33;20493;-73
2021/03/10 16:11:47;;;;;;;45.05;17.63;;;;;;;7.59;61.51;100245.75;8514787;33;20588;-73
2021/03/10 16:16:50;;;;;;;41.25;16.40;;;;;;;7.50;61.65;100249.94;8502334;33;20434;-73
2021/03/10 16:21:57;;;;;;;35.33;17.30;;;;;;;7.59;61.04;100246.59;8494653;33;20473;-72
2021/03/10 16:26:59;;;;;;;43.97;20.17;;;;;;;7.62;60.88;100248.19;8486610;33;20430;-73
2021/03/10 16:32:03;;;;;;;34.50;14.30;;;;;;;7.50;60.55;100248.09;8486692;33;20651;-73
2021/03/10 16:37:06;;;;;;;23.40;10.75;;;;;;;7.47;60.00;100239.47;8486952;33;21433;-72
2021/03/10 16:42:09;;;;;;;34.47;16.30;;;;;;;7.54;60.13;100246.06;8486107;33;21907;-73
2021/03/10 16:47:12;;;;;;;31.40;14.88;;;;;;;7.48;60.20;100225.97;8465886;33;20672;-73
2021/03/10 16:52:15;;;;;;;28.98;15.48;;;;;;;7.37;59.73;100222.34;8479498;33;20496;-73
2021/03/10 16:57:17;;;;;;;33.03;15.18;;;;;;;7.39;59.72;100215.09;8504200;33;20502;-73
2021/03/10 17:02:31;;;;;;;31.13;15.90;;;;;;;7.36;59.71;100208.13;8504360;33;20346;-73
2021/03/10 17:07:36;;;;;;;33.70;15.05;;;;;;;7.34;60.07;100204.72;8507182;33;20184;-75
2021/03/10 17:12:40;;;;;;;28.15;14.38;;;;;;;7.32;59.66;100195.94;8503117;33;20145;-73
2021/03/10 17:17:43;;;;;;;24.92;12.88;;;;;;;7.11;59.78;100187.63;8502712;33;20484;-73
2021/03/10 17:22:45;;;;;;;26.13;11.55;;;;;;;7.18;60.16;100182.72;8505820;33;20684;-73
2021/03/10 17:27:48;;;;;;;32.35;14.35;;;;;;;7.11;60.68;100187.63;8503514;33;20925;-74
2021/03/10 17:32:51;;;;;;;22.45;9.80;;;;;;;6.90;61.72;100184.63;8503533;33;20424;-73
2021/03/10 17:37:53;;;;;;;30.70;14.20;;;;;;;6.97;61.74;100182.41;8501181;33;20480;-74
2021/03/10 17:42:55;;;;;;;32.85;14.80;;;;;;;6.85;62.29;100165.34;8487832;33;20133;-75
2021/03/10 17:47:58;;;;;;;29.50;14.18;;;;;;;6.76;62.87;100174.88;8464645;33;20298;-74
2021/03/10 17:53:01;;;;;;;28.20;12.07;;;;;;;6.65;63.02;100155.22;8484462;33;20553;-74
2021/03/10 17:58:03;;;;;;;19.17;9.43;;;;;;;6.50;62.29;100141.97;8485041;33;20608;-74
2021/03/10 18:03:06;;;;;;;25.13;11.32;;;;;;;6.56;63.20;100128.19;8461057;33;20226;-74
2021/03/10 18:08:09;;;;;;;22.33;11.45;;;;;;;6.60;63.21;100119.00;8485030;33;20543;-74
2021/03/10 18:13:11;;;;;;;23.50;12.27;;;;;;;6.61;62.54;100115.38;8488196;33;20416;-74
2021/03/10 18:18:14;;;;;;;21.90;10.15;;;;;;;6.65;63.10;100110.69;8487390;33;20425;-73
2021/03/10 18:23:17;;;;;;;24.17;12.75;;;;;;;6.69;63.23;100112.19;8489408;33;20569;-73
2021/03/10 18:28:20;;;;;;;24.67;11.82;;;;;;;6.64;63.44;100103.66;8463235;33;20494;-74
2021/03/10 18:33:23;;;;;;;26.75;12.15;;;;;;;6.50;63.93;100117.06;8460441;33;20867;-74
2021/03/10 18:38:26;;;;;;;19.27;9.75;;;;;;;6.19;63.55;100103.13;8483895;33;21078;-74
2021/03/10 18:43:28;;;;;;;21.55;10.55;;;;;;;6.44;64.70;100088.13;8494496;33;20865;-75
2021/03/10 18:48:31;;;;;;;14.75;8.15;;;;;;;5.86;64.71;100072.44;8494341;33;20171;-74
2021/03/10 18:53:34;;;;;;;17.77;9.27;;;;;;;5.93;65.60;100054.25;8492214;33;20212;-74
2021/03/10 18:58:37;;;;;;;18.65;9.23;;;;;;;5.97;64.66;100033.53;8495954;33;20424;-74
2021/03/10 19:03:40;;;;;;;15.82;7.20;;;;;;;5.98;63.51;100036.13;8509190;33;20653;-73
2021/03/10 19:08:43;;;;;;;16.10;7.10;;;;;;;6.05;62.61;100009.88;8556805;33;20171;-74
2021/03/10 19:13:45;;;;;;;14.68;7.28;;;;;;;6.38;62.78;99983.53;8567584;33;20515;-72
2021/03/10 19:18:48;;;;;;;13.63;7.05;;;;;;;6.33;61.45;99963.47;8578408;33;20413;-72
2021/03/10 19:23:50;;;;;;;12.52;7.30;;;;;;;6.48;61.47;99950.91;8559342;33;20156;-73
2021/03/10 19:28:53;;;;;;;17.40;7.93;;;;;;;6.45;60.18;99937.78;8556156;33;20190;-73
2021/03/10 19:33:56;;;;;;;17.83;7.27;;;;;;;6.56;59.84;99933.38;8558113;33;21092;-74
2021/03/10 19:38:58;;;;;;;15.15;8.68;;;;;;;6.56;59.53;99928.03;8480915;33;20429;-74
2021/03/10 19:44:00;;;;;;;16.58;8.07;;;;;;;6.53;60.12;99914.91;8530249;33;20234;-74
2021/03/10 19:49:04;;;;;;;19.10;8.65;;;;;;;6.34;60.61;99904.69;8570948;33;20313;-73
2021/03/10 19:54:07;;;;;;;16.83;7.38;;;;;;;6.37;60.63;99888.47;8555177;33;20411;-73
2021/03/10 19:59:09;;;;;;;19.55;8.88;;;;;;;6.49;60.36;99867.22;8519842;33;21194;-73
2021/03/10 20:04:12;;;;;;;19.60;9.15;;;;;;;6.29;61.16;99873.97;8526966;33;20435;-73
2021/03/10 20:09:14;;;;;;;20.38;9.60;;;;;;;6.34;60.60;99859.34;8518775;33;20419;-73
2021/03/10 20:14:22;;;;;;;26.13;12.10;;;;;;;6.52;60.99;99830.47;8548618;33;20809;-73
2021/03/10 20:19:25;;;;;;;21.70;11.98;;;;;;;6.33;61.28;99828.28;8548683;33;20194;-73
2021/03/10 20:24:29;;;;;;;23.40;11.63;;;;;;;6.48;60.92;99814.81;8532427;33;20550;-72
2021/03/10 20:29:31;;;;;;;21.90;10.43;;;;;;;6.35;61.64;99806.84;8577805;33;21797;-73
2021/03/10 20:34:34;;;;;;;26.05;11.35;;;;;;;6.49;61.29;99792.50;8558597;33;20940;-73
2021/03/10 20:39:36;;;;;;;28.33;13.23;;;;;;;6.57;60.95;99779.44;8591187;33;20945;-71
2021/03/10 20:44:38;;;;;;;26.63;12.25;;;;;;;6.63;60.76;99771.81;8569760;33;20159;-73
2021/03/10 20:49:42;;;;;;;25.10;13.40;;;;;;;6.59;61.06;99756.19;8595372;33;20179;-73
2021/03/10 20:54:44;;;;;;;29.42;12.90;;;;;;;6.49;61.11;99737.31;8579947;33;20478;-73
2021/03/10 20:59:47;;;;;;;27.23;13.10;;;;;;;6.67;60.92;99750.28;8574561;33;21119;-74
2021/03/10 21:04:50;;;;;;;30.02;12.77;;;;;;;6.56;61.12;99748.41;8579180;33;20456;-74
2021/03/10 21:09:52;;;;;;;28.80;13.50;;;;;;;6.54;60.91;99740.50;8570161;33;20250;-73
2021/03/10 21:14:54;;;;;;;23.20;11.68;;;;;;;6.50;61.01;99724.81;8543729;33;20329;-72
2021/03/10 21:19:58;;;;;;;25.48;12.43;;;;;;;6.60;60.95;99704.50;8541862;33;20979;-73
2021/03/10 21:25:00;;;;;;;30.67;13.98;;;;;;;6.48;61.68;99713.44;8560822;33;20433;-73
2021/03/10 21:30:04;;;;;;;26.58;13.02;;;;;;;6.48;61.45;99698.25;8541878;33;20556;-73
2021/03/10 21:35:09;;;;;;;27.17;12.15;;;;;;;6.31;61.81;99704.03;8536207;33;20469;-73
2021/03/10 21:40:12;;;;;;;33.22;14.57;;;;;;;6.45;62.00;99685.16;8514706;33;20807;-72
2021/03/10 21:45:16;;;;;;;26.58;12.05;;;;;;;6.35;62.32;99674.31;8542778;33;20581;-73
2021/03/10 21:50:19;;;;;;;28.15;14.27;;;;;;;6.32;63.05;99658.53;8542295;33;20520;-73
2021/03/10 21:55:22;;;;;;;23.42;12.73;;;;;;;6.17;63.31;99633.88;8544053;33;20235;-73
2021/03/10 22:00:26;;;;;;;33.33;15.15;;;;;;;6.19;64.07;99636.41;8543655;33;20188;-72
2021/03/10 22:05:29;;;;;;;28.75;13.25;;;;;;;6.11;64.15;99607.66;8540602;33;21903;-72
2021/03/10 22:10:31;;;;;;;27.40;12.48;;;;;;;6.08;63.60;99607.03;8540760;33;20534;-72
2021/03/10 22:15:33;;;;;;;25.50;12.38;;;;;;;6.08;63.48;99586.56;8540160;33;20526;-73
2021/03/10 22:20:36;;;;;;;29.92;14.00;;;;;;;6.13;63.21;99608.41;8538976;33;20191;-73
2021/03/10 22:25:38;;;;;;;29.00;13.13;;;;;;;6.08;63.79;99572.38;8539351;33;20554;-73
2021/03/10 22:30:40;;;;;;;28.48;12.85;;;;;;;5.99;64.81;99554.41;8539799;33;20184;-73
2021/03/10 22:35:44;;;;;;;28.23;13.33;;;;;;;6.03;65.17;99562.03;8570901;33;20410;-72
2021/03/10 22:40:46;;;;;;;19.67;10.88;;;;;;;5.71;65.40;99557.31;8602060;33;20569;-73
2021/03/10 22:45:48;;;;;;;31.50;13.65;;;;;;;5.87;67.00;99545.50;8599049;33;20469;-73
2021/03/10 22:50:52;;;;;;;23.20;10.90;;;;;;;5.32;68.16;99565.53;8594206;33;20436;-73
2021/03/10 22:55:54;;;;;;;20.50;12.02;;;;;;;5.27;69.62;99537.44;8557621;33;20424;-73
2021/03/10 23:00:56;;;;;;;23.30;10.77;;;;;;;5.08;71.46;99533.56;8535635;33;20434;-74
2021/03/10 23:05:59;;;;;;;33.45;14.82;;;;;;;4.86;74.31;99521.75;8537528;33;20140;-74
2021/03/10 23:11:02;;;;;;;13.68;6.25;;;;;;;4.70;74.46;99511.34;8536427;33;21461;-74
2021/03/10 23:16:04;;;;;;;27.88;11.25;;;;;;;4.55;76.45;99502.63;8536749;33;20462;-73
2021/03/10 23:21:08;;;;;;;26.60;11.82;;;;;;;4.40;76.43;99496.56;8536775;33;21162;-74
2021/03/10 23:26:11;;;;;;;30.80;14.70;;;;;;;4.54;76.97;99482.31;8537640;33;20932;-74
2021/03/10 23:31:13;;;;;;;21.95;9.80;;;;;;;4.29;77.78;99456.59;8537623;33;20179;-74
2021/03/10 23:36:18;;;;;;;27.15;13.00;;;;;;;4.33;77.98;99446.56;8536967;33;20178;-74